• Join FlightAware (Why Join?)
  • Login
  • US Flag 
09:52AM EDT


 

Airport Tracker/Info


-or-


 

Live Flight TrackerFlight Track Log ✈ VH-ENT ✈ 06-Sep-2013 ✈ YFTZ / FIZ - YBRM / BME

Flight Track Log - Related Links

Times and Time Zones

All times are in EDT time to prevent confusion due to time zone crossing. See the VH-ENT flight status page for this flight to view local times or setup timezone preferences in your user account.

Time Position Orientation Groundspeed Altitude Reporting Facility
EDT Latitude Longitude Course Direction KTS MPH feet Rate Location/Type
01:27AM -18.1825 125.4510 282° West 10,000  Level Aus ATC (Calculated)
01:28AM -18.1715 125.3949 274° West 10,000  Level Aus ATC (Calculated)
01:30AM -18.1660 125.3110 274° West  Level FlightAware Approximate
01:31AM -18.1628 125.2621 274° West  Level FlightAware Approximate
01:31AM -18.1673 125.2324 274° West 10,000  Level Aus ATC (Calculated)
01:33AM -18.1614 125.1485 274° West  Level FlightAware Approximate
01:34AM -18.1580 125.0997 274° West  Level FlightAware Approximate
01:35AM -18.1545 125.0508 274° West  Level FlightAware Approximate
01:36AM -18.1511 125.0019 274° West  Level FlightAware Approximate
01:36AM -18.1428 124.9583 360° North 10,000  Level Aus ATC (Calculated)
01:37AM -18.1428 124.9583 274° West 10,000  Level Aus ATC (Calculated)
01:39AM -18.1363 124.8626 274° West  Level FlightAware Approximate
01:40AM -18.1329 124.8122 274° West  Level FlightAware Approximate
01:41AM -18.1295 124.7619 274° West  Level FlightAware Approximate
01:42AM -18.1261 124.7115 274° West  Level FlightAware Approximate
01:43AM -18.1227 124.6612 274° West  Level FlightAware Approximate
01:44AM -18.1192 124.6108 274° West  Level FlightAware Approximate
01:45AM -18.1157 124.5605 274° West  Level FlightAware Approximate
01:46AM -18.1122 124.5101 274° West  Level FlightAware Approximate
01:46AM -18.1093 124.4672 274° West 10,000  Level Aus ATC (Calculated)
01:48AM -18.1027 124.3732 274° West  Level FlightAware Approximate
01:49AM -18.0992 124.3229 274° West  Level FlightAware Approximate
01:50AM -18.0956 124.2726 274° West  Level FlightAware Approximate
01:50AM -18.0960 124.2494 360° North 10,000  Level Aus ATC (Calculated)
01:50AM -18.0960 124.2494 275° West 10,000  Level Aus ATC (Calculated)
01:52AM -18.0918 124.1932 275° West  Level FlightAware Approximate
01:53AM -18.0880 124.1429 275° West  Level FlightAware Approximate
01:54AM -18.0841 124.0926 275° West  Level FlightAware Approximate
01:54AM -18.0785 124.0309 100° East 10,000  Level Aus ATC (Calculated)
01:55AM -18.0803 124.0423 275° West  Level FlightAware Approximate
01:56AM -18.0745 123.9755 274° West  Level FlightAware Approximate
01:57AM -18.0708 123.9252 274° West  Level FlightAware Approximate
01:58AM -18.0672 123.8749 274° West  Level FlightAware Approximate
01:59AM -18.0635 123.8246 274° West  Level FlightAware Approximate
02:00AM -18.0599 123.7742 274° West  Level FlightAware Approximate
02:00AM -18.0560 123.7136 65° Northeast 100  Level Aus ATC (Calculated)
02:00AM -18.0558 123.7141 245° Southwest 300  Climbing Aus ATC (Calculated)
02:01AM -18.0560 123.7136 274° West 100  Descending Aus ATC (Calculated)
02:01AM -18.0488 123.6155 94° East 300 360 Climbing Aus ATC (Calculated)
02:03AM -18.0525 123.6675 94° East  Level FlightAware Approximate
02:04AM -18.0560 123.7178 94° East  Level FlightAware Approximate
02:04AM -18.0418 123.5168 94° East 300  Level Aus ATC (Calculated)
02:05AM -18.0525 123.6675 274° West  Level Estimated
02:06AM -18.0357 123.4313 274° West  Level FlightAware Approximate
02:07AM -18.0321 123.3810 274° West  Level FlightAware Approximate
02:08AM -18.0285 123.3307 274° West  Level FlightAware Approximate
02:08AM -18.0287 123.3172 274° West 100  Level Aus ATC (Calculated)
02:10AM -18.0228 123.2367 274° West  Level FlightAware Approximate
02:10AM -18.0218 123.2181 65° Northeast 100  Level Aus ATC (Calculated)
02:10AM -18.0205 123.2210 274° West 300 3,000 Climbing Aus ATC (Calculated)
02:12AM -18.0155 123.1514 274° West  Level FlightAware Approximate
02:13AM -18.0118 123.1011 274° West  Level FlightAware Approximate
02:14AM -18.0081 123.0508 274° West  Level FlightAware Approximate
02:15AM -18.0044 123.0005 274° West  Level FlightAware Approximate
02:16AM -18.0007 122.9502 274° West  Level FlightAware Approximate
02:17AM -17.9969 122.8999 274° West  Level FlightAware Approximate
02:18AM -17.9932 122.8496 274° West  Level FlightAware Approximate
02:19AM -17.9894 122.7994 274° West  Level FlightAware Approximate
02:19AM -17.9840 122.7280 360° North 300  Level Aus ATC (Calculated)
02:19AM -17.9840 122.7280 275° West 300  Level Aus ATC (Calculated)
02:21AM -17.9778 122.6459 275° West  Level FlightAware Approximate
02:21AM -17.9791 122.6238 275° West 100  Level Aus ATC (Calculated)
02:23AM -17.9719 122.5376 275° West  Level FlightAware Approximate
02:24AM -17.9676 122.4873 275° West  Level FlightAware Approximate
02:25AM -17.9634 122.4371 275° West  Level FlightAware Approximate
02:26AM -17.9592 122.3868 275° West  Level FlightAware Approximate
02:27AM -17.9549 122.3366 275° West  Level FlightAware Approximate
02:28AM -17.9507 122.2864 275° West  Level FlightAware Approximate
02:29AM -17.9464 122.2362 275° West  Level FlightAware Approximate
02:29AM -17.9496 122.2277 360° North 100  Level Aus ATC (Calculated)
02:29AM -17.9496 122.2277 38° Northeast 100  Level Aus ATC (Calculated)
02:30AM -17.9447 122.2317 275° West  Level Estimated
02:31AM -17.9447 122.2317 66° East  Level Estimated
02:32AM -17.9447 122.2317 115° Southeast  Level Estimated
02:33AM -17.9447 122.2317 115° Southeast  Level Estimated
02:34AM -17.9463 122.2353 274° West  Level FlightAware Approximate
02:35AM -17.9447 122.2317 274° West  Level Estimated
02:36AM -17.9463 122.2353 274° West  Level FlightAware Approximate
02:37AM -17.9447 122.2317 274° West  Level Estimated
02:38AM -17.9463 122.2353 274° West  Level FlightAware Approximate
02:39AM -17.9447 122.2317 274° West  Level Estimated
02:40AM -17.9463 122.2353 274° West  Level FlightAware Approximate
02:41AM -17.9447 122.2317 274° West  Level Estimated
02:42AM -17.9463 122.2353 274° West  Level FlightAware Approximate
02:43AM -17.9447 122.2317 274° West  Level Estimated
02:44AM -17.9463 122.2353 274° West  Level FlightAware Approximate
02:45AM -17.9447 122.2317 274° West  Level Estimated
02:46AM -17.9463 122.2353 274° West  Level FlightAware Approximate
02:47AM -17.9447 122.2317 274° West  Level Estimated